sensor_id;sensor_type;location;lat;lon;timestamp;temperature;humidity
15636;DHT22;7917;50.818;6.972;2023-04-10T00:00:24;5.10;1.00
15636;DHT22;7917;50.818;6.972;2023-04-10T00:02:53;5.10;1.00
15636;DHT22;7917;50.818;6.972;2023-04-10T00:05:22;5.10;55.40
15636;DHT22;7917;50.818;6.972;2023-04-10T00:07:48;5.10;99.90
15636;DHT22;7917;50.818;6.972;2023-04-10T00:10:18;5.10;1.00
15636;DHT22;7917;50.818;6.972;2023-04-10T00:12:47;5.20;1.00
15636;DHT22;7917;50.818;6.972;2023-04-10T00:15:18;5.20;1.00
15636;DHT22;7917;50.818;6.972;2023-04-10T00:17:50;5.30;1.00
15636;DHT22;7917;50.818;6.972;2023-04-10T00:20:23;5.40;1.00
15636;DHT22;7917;50.818;6.972;2023-04-10T00:22:51;5.40;1.00
15636;DHT22;7917;50.818;6.972;2023-04-10T00:25:17;5.40;1.00
15636;DHT22;7917;50.818;6.972;2023-04-10T00:27:44;5.30;99.90
15636;DHT22;7917;50.818;6.972;2023-04-10T00:30:13;5.30;99.90
15636;DHT22;7917;50.818;6.972;2023-04-10T00:32:39;5.30;99.90
15636;DHT22;7917;50.818;6.972;2023-04-10T00:35:07;5.20;99.90
15636;DHT22;7917;50.818;6.972;2023-04-10T00:37:34;5.20;99.90
15636;DHT22;7917;50.818;6.972;2023-04-10T00:40:01;5.20;1.00
15636;DHT22;7917;50.818;6.972;2023-04-10T00:42:28;5.20;1.00
15636;DHT22;7917;50.818;6.972;2023-04-10T00:44:55;5.20;1.00
15636;DHT22;7917;50.818;6.972;2023-04-10T00:47:21;5.30;1.00
15636;DHT22;7917;50.818;6.972;2023-04-10T00:49:55;5.30;1.00
15636;DHT22;7917;50.818;6.972;2023-04-10T00:52:32;5.30;99.90
15636;DHT22;7917;50.818;6.972;2023-04-10T00:54:59;5.30;99.90
15636;DHT22;7917;50.818;6.972;2023-04-10T00:57:26;5.40;99.90
15636;DHT22;7917;50.818;6.972;2023-04-10T00:59:55;5.40;99.90
15636;DHT22;7917;50.818;6.972;2023-04-10T01:02:28;5.40;99.90
15636;DHT22;7917;50.818;6.972;2023-04-10T01:05:00;5.40;4.90
15636;DHT22;7917;50.818;6.972;2023-04-10T01:07:37;5.30;76.30
15636;DHT22;7917;50.818;6.972;2023-04-10T01:10:19;5.30;1.00
15636;DHT22;7917;50.818;6.972;2023-04-10T01:12:58;5.30;99.90
15636;DHT22;7917;50.818;6.972;2023-04-10T01:15:36;5.20;1.00
15636;DHT22;7917;50.818;6.972;2023-04-10T01:18:15;5.20;1.00
15636;DHT22;7917;50.818;6.972;2023-04-10T01:20:44;5.20;70.70
15636;DHT22;7917;50.818;6.972;2023-04-10T01:23:42;5.10;99.90
15636;DHT22;7917;50.818;6.972;2023-04-10T01:26:15;5.10;99.90
15636;DHT22;7917;50.818;6.972;2023-04-10T01:32:01;5.10;99.90
15636;DHT22;7917;50.818;6.972;2023-04-10T01:34:34;5.10;1.00
15636;DHT22;7917;50.818;6.972;2023-04-10T01:37:04;5.10;1.00
15636;DHT22;7917;50.818;6.972;2023-04-10T01:39:38;5.20;60.80
15636;DHT22;7917;50.818;6.972;2023-04-10T01:42:09;5.20;1.00
15636;DHT22;7917;50.818;6.972;2023-04-10T01:44:40;5.30;1.00
15636;DHT22;7917;50.818;6.972;2023-04-10T01:47:07;5.30;99.90
15636;DHT22;7917;50.818;6.972;2023-04-10T01:49:34;5.40;99.90
15636;DHT22;7917;50.818;6.972;2023-04-10T01:52:02;5.30;99.90
15636;DHT22;7917;50.818;6.972;2023-04-10T01:54:33;5.30;99.90
15636;DHT22;7917;50.818;6.972;2023-04-10T01:57:04;5.30;99.90
15636;DHT22;7917;50.818;6.972;2023-04-10T01:59:37;5.30;99.90
15636;DHT22;7917;50.818;6.972;2023-04-10T02:02:16;5.40;99.90
15636;DHT22;7917;50.818;6.972;2023-04-10T02:04:45;5.40;99.90
15636;DHT22;7917;50.818;6.972;2023-04-10T02:07:24;5.40;99.90
15636;DHT22;7917;50.818;6.972;2023-04-10T02:10:03;5.30;9.40
15636;DHT22;7917;50.818;6.972;2023-04-10T02:12:38;5.30;99.90
15636;DHT22;7917;50.818;6.972;2023-04-10T02:15:19;5.20;99.90
15636;DHT22;7917;50.818;6.972;2023-04-10T02:17:51;5.20;99.90
15636;DHT22;7917;50.818;6.972;2023-04-10T02:20:20;5.20;1.00
15636;DHT22;7917;50.818;6.972;2023-04-10T02:22:53;5.20;1.00
15636;DHT22;7917;50.818;6.972;2023-04-10T02:25:22;5.20;99.90
15636;DHT22;7917;50.818;6.972;2023-04-10T02:27:52;5.20;99.90
15636;DHT22;7917;50.818;6.972;2023-04-10T02:30:19;5.20;99.90
15636;DHT22;7917;50.818;6.972;2023-04-10T02:32:47;5.10;1.00
15636;DHT22;7917;50.818;6.972;2023-04-10T02:35:24;5.20;1.00
15636;DHT22;7917;50.818;6.972;2023-04-10T02:37:51;5.20;1.00
15636;DHT22;7917;50.818;6.972;2023-04-10T02:40:20;5.20;99.90
15636;DHT22;7917;50.818;6.972;2023-04-10T02:42:52;5.10;99.90
15636;DHT22;7917;50.818;6.972;2023-04-10T02:45:20;5.10;1.00
15636;DHT22;7917;50.818;6.972;2023-04-10T02:47:49;5.00;1.00
15636;DHT22;7917;50.818;6.972;2023-04-10T02:50:18;5.00;1.00
15636;DHT22;7917;50.818;6.972;2023-04-10T02:52:50;4.90;99.90
15636;DHT22;7917;50.818;6.972;2023-04-10T02:55:26;4.90;99.90
15636;DHT22;7917;50.818;6.972;2023-04-10T02:57:52;4.80;99.90
15636;DHT22;7917;50.818;6.972;2023-04-10T03:03:42;4.80;1.00
15636;DHT22;7917;50.818;6.972;2023-04-10T03:06:14;4.70;1.00
15636;DHT22;7917;50.818;6.972;2023-04-10T03:08:41;4.60;99.90
15636;DHT22;7917;50.818;6.972;2023-04-10T03:11:10;4.50;99.90
15636;DHT22;7917;50.818;6.972;2023-04-10T03:13:38;4.50;1.00
15636;DHT22;7917;50.818;6.972;2023-04-10T03:16:05;4.40;1.00
15636;DHT22;7917;50.818;6.972;2023-04-10T03:18:32;4.50;99.90
15636;DHT22;7917;50.818;6.972;2023-04-10T03:21:00;4.50;99.90
15636;DHT22;7917;50.818;6.972;2023-04-10T03:23:27;4.40;99.90
15636;DHT22;7917;50.818;6.972;2023-04-10T03:25:54;4.40;99.90
15636;DHT22;7917;50.818;6.972;2023-04-10T03:28:21;4.40;1.00
15636;DHT22;7917;50.818;6.972;2023-04-10T03:30:49;4.30;1.00
15636;DHT22;7917;50.818;6.972;2023-04-10T03:33:15;4.30;71.20
15636;DHT22;7917;50.818;6.972;2023-04-10T03:35:44;4.30;1.00
15636;DHT22;7917;50.818;6.972;2023-04-10T03:38:11;4.30;1.00
15636;DHT22;7917;50.818;6.972;2023-04-10T03:40:38;4.30;99.90
15636;DHT22;7917;50.818;6.972;2023-04-10T03:43:05;4.20;1.00
15636;DHT22;7917;50.818;6.972;2023-04-10T03:45:32;4.30;99.90
15636;DHT22;7917;50.818;6.972;2023-04-10T03:47:59;4.30;1.00
15636;DHT22;7917;50.818;6.972;2023-04-10T03:50:26;4.20;99.90
15636;DHT22;7917;50.818;6.972;2023-04-10T03:52:53;4.20;1.00
15636;DHT22;7917;50.818;6.972;2023-04-10T03:55:21;4.20;99.90
15636;DHT22;7917;50.818;6.972;2023-04-10T03:57:48;4.30;99.90
15636;DHT22;7917;50.818;6.972;2023-04-10T04:00:15;4.40;1.00
15636;DHT22;7917;50.818;6.972;2023-04-10T04:02:42;4.40;99.90
15636;DHT22;7917;50.818;6.972;2023-04-10T04:05:09;4.40;33.50
15636;DHT22;7917;50.818;6.972;2023-04-10T04:07:36;4.40;1.00
15636;DHT22;7917;50.818;6.972;2023-04-10T04:10:03;4.40;1.00
15636;DHT22;7917;50.818;6.972;2023-04-10T04:12:31;4.40;1.00
15636;DHT22;7917;50.818;6.972;2023-04-10T04:14:58;4.40;99.90
15636;DHT22;7917;50.818;6.972;2023-04-10T04:17:25;4.40;1.00
15636;DHT22;7917;50.818;6.972;2023-04-10T04:19:52;4.40;1.00
15636;DHT22;7917;50.818;6.972;2023-04-10T04:22:20;4.40;1.00
15636;DHT22;7917;50.818;6.972;2023-04-10T04:24:46;4.40;99.90
15636;DHT22;7917;50.818;6.972;2023-04-10T04:27:13;4.40;1.00
15636;DHT22;7917;50.818;6.972;2023-04-10T04:29:45;4.40;99.90
15636;DHT22;7917;50.818;6.972;2023-04-10T04:32:12;4.50;1.00
15636;DHT22;7917;50.818;6.972;2023-04-10T04:34:44;4.50;1.00
15636;DHT22;7917;50.818;6.972;2023-04-10T04:37:11;4.50;1.00
15636;DHT22;7917;50.818;6.972;2023-04-10T04:39:38;4.50;76.00
15636;DHT22;7917;50.818;6.972;2023-04-10T04:42:05;4.50;1.00
15636;DHT22;7917;50.818;6.972;2023-04-10T04:44:32;4.40;1.00
15636;DHT22;7917;50.818;6.972;2023-04-10T04:47:01;4.40;1.00
15636;DHT22;7917;50.818;6.972;2023-04-10T04:49:27;4.50;1.00
15636;DHT22;7917;50.818;6.972;2023-04-10T04:51:54;4.50;99.90
15636;DHT22;7917;50.818;6.972;2023-04-10T04:54:21;4.60;99.90
15636;DHT22;7917;50.818;6.972;2023-04-10T04:56:48;4.70;50.90
15636;DHT22;7917;50.818;6.972;2023-04-10T04:59:15;4.70;1.00
15636;DHT22;7917;50.818;6.972;2023-04-10T05:01:42;4.90;1.00
15636;DHT22;7917;50.818;6.972;2023-04-10T05:04:10;4.80;1.00
15636;DHT22;7917;50.818;6.972;2023-04-10T05:06:37;4.80;1.00
15636;DHT22;7917;50.818;6.972;2023-04-10T05:09:04;4.80;1.00
15636;DHT22;7917;50.818;6.972;2023-04-10T05:11:31;4.80;99.90
15636;DHT22;7917;50.818;6.972;2023-04-10T05:13:59;4.80;1.00
15636;DHT22;7917;50.818;6.972;2023-04-10T05:16:26;4.90;1.00
15636;DHT22;7917;50.818;6.972;2023-04-10T05:18:53;5.00;1.00
15636;DHT22;7917;50.818;6.972;2023-04-10T05:21:20;5.10;99.90
15636;DHT22;7917;50.818;6.972;2023-04-10T05:23:47;5.20;99.90
15636;DHT22;7917;50.818;6.972;2023-04-10T05:26:14;5.30;1.00
15636;DHT22;7917;50.818;6.972;2023-04-10T05:28:42;5.40;1.00
15636;DHT22;7917;50.818;6.972;2023-04-10T05:31:09;5.50;1.00
15636;DHT22;7917;50.818;6.972;2023-04-10T05:33:35;5.60;1.00
15636;DHT22;7917;50.818;6.972;2023-04-10T05:36:03;5.60;1.00
15636;DHT22;7917;50.818;6.972;2023-04-10T05:38:31;5.80;1.00
15636;DHT22;7917;50.818;6.972;2023-04-10T05:40:58;5.90;99.90
15636;DHT22;7917;50.818;6.972;2023-04-10T05:43:45;6.10;99.90
15636;DHT22;7917;50.818;6.972;2023-04-10T05:46:12;6.20;95.10
15636;DHT22;7917;50.818;6.972;2023-04-10T05:48:39;6.30;1.00
15636;DHT22;7917;50.818;6.972;2023-04-10T05:51:07;6.50;1.00
15636;DHT22;7917;50.818;6.972;2023-04-10T05:53:35;6.60;1.00
15636;DHT22;7917;50.818;6.972;2023-04-10T05:56:01;6.70;1.00
15636;DHT22;7917;50.818;6.972;2023-04-10T05:58:29;6.80;1.00
15636;DHT22;7917;50.818;6.972;2023-04-10T06:00:56;6.90;1.00
15636;DHT22;7917;50.818;6.972;2023-04-10T06:03:24;7.00;1.00
15636;DHT22;7917;50.818;6.972;2023-04-10T06:05:54;7.10;1.00
15636;DHT22;7917;50.818;6.972;2023-04-10T06:08:23;7.10;1.00
15636;DHT22;7917;50.818;6.972;2023-04-10T06:10:51;7.10;1.00
15636;DHT22;7917;50.818;6.972;2023-04-10T06:13:24;7.20;1.00
15636;DHT22;7917;50.818;6.972;2023-04-10T06:15:54;7.30;1.00
15636;DHT22;7917;50.818;6.972;2023-04-10T06:18:21;7.30;1.00
15636;DHT22;7917;50.818;6.972;2023-04-10T06:20:48;7.40;1.00
15636;DHT22;7917;50.818;6.972;2023-04-10T06:23:15;7.60;1.00
15636;DHT22;7917;50.818;6.972;2023-04-10T06:25:42;7.70;1.00
15636;DHT22;7917;50.818;6.972;2023-04-10T06:28:10;7.80;1.00
15636;DHT22;7917;50.818;6.972;2023-04-10T06:30:37;8.00;1.00
15636;DHT22;7917;50.818;6.972;2023-04-10T06:33:04;8.30;1.00
15636;DHT22;7917;50.818;6.972;2023-04-10T06:35:31;8.50;99.90
15636;DHT22;7917;50.818;6.972;2023-04-10T06:37:58;8.80;99.90
15636;DHT22;7917;50.818;6.972;2023-04-10T06:40:25;9.00;99.90
15636;DHT22;7917;50.818;6.972;2023-04-10T06:42:54;9.30;99.90
15636;DHT22;7917;50.818;6.972;2023-04-10T06:45:28;9.40;99.90
15636;DHT22;7917;50.818;6.972;2023-04-10T06:47:56;9.50;99.90
15636;DHT22;7917;50.818;6.972;2023-04-10T06:50:23;9.60;99.90
15636;DHT22;7917;50.818;6.972;2023-04-10T06:52:50;9.80;99.90
15636;DHT22;7917;50.818;6.972;2023-04-10T06:55:18;10.10;99.90
15636;DHT22;7917;50.818;6.972;2023-04-10T06:57:45;10.40;99.90
15636;DHT22;7917;50.818;6.972;2023-04-10T07:00:18;10.60;99.90
15636;DHT22;7917;50.818;6.972;2023-04-10T07:02:46;10.80;99.90
15636;DHT22;7917;50.818;6.972;2023-04-10T07:05:14;10.90;99.90
15636;DHT22;7917;50.818;6.972;2023-04-10T07:07:50;11.00;99.90
15636;DHT22;7917;50.818;6.972;2023-04-10T07:10:28;11.10;99.90
15636;DHT22;7917;50.818;6.972;2023-04-10T07:12:54;11.20;99.90
15636;DHT22;7917;50.818;6.972;2023-04-10T07:15:34;11.30;99.90
15636;DHT22;7917;50.818;6.972;2023-04-10T07:18:02;11.70;99.90
15636;DHT22;7917;50.818;6.972;2023-04-10T07:20:29;11.90;99.90
15636;DHT22;7917;50.818;6.972;2023-04-10T07:22:56;12.20;99.90
15636;DHT22;7917;50.818;6.972;2023-04-10T07:25:23;12.30;99.90
15636;DHT22;7917;50.818;6.972;2023-04-10T07:27:50;12.20;99.90
15636;DHT22;7917;50.818;6.972;2023-04-10T07:30:35;12.20;99.90
15636;DHT22;7917;50.818;6.972;2023-04-10T07:33:04;12.20;99.90
15636;DHT22;7917;50.818;6.972;2023-04-10T07:35:31;12.40;99.90
15636;DHT22;7917;50.818;6.972;2023-04-10T07:37:57;12.40;99.90
15636;DHT22;7917;50.818;6.972;2023-04-10T07:40:24;12.40;99.90
15636;DHT22;7917;50.818;6.972;2023-04-10T07:42:51;12.50;99.90
15636;DHT22;7917;50.818;6.972;2023-04-10T07:45:18;12.50;99.90
15636;DHT22;7917;50.818;6.972;2023-04-10T07:47:45;12.30;99.90
15636;DHT22;7917;50.818;6.972;2023-04-10T07:50:13;12.20;99.90
15636;DHT22;7917;50.818;6.972;2023-04-10T07:53:07;12.10;99.90
15636;DHT22;7917;50.818;6.972;2023-04-10T07:55:37;12.00;99.90
15636;DHT22;7917;50.818;6.972;2023-04-10T07:58:04;12.10;99.90
15636;DHT22;7917;50.818;6.972;2023-04-10T08:00:35;12.20;99.90
15636;DHT22;7917;50.818;6.972;2023-04-10T08:03:02;12.40;99.90
15636;DHT22;7917;50.818;6.972;2023-04-10T08:05:30;12.40;99.90
15636;DHT22;7917;50.818;6.972;2023-04-10T08:07:58;12.60;99.90
15636;DHT22;7917;50.818;6.972;2023-04-10T08:10:56;12.70;99.90
15636;DHT22;7917;50.818;6.972;2023-04-10T08:13:23;12.80;99.90
15636;DHT22;7917;50.818;6.972;2023-04-10T08:15:50;13.00;99.90
15636;DHT22;7917;50.818;6.972;2023-04-10T08:18:16;13.10;99.90
15636;DHT22;7917;50.818;6.972;2023-04-10T08:20:44;13.10;99.90
15636;DHT22;7917;50.818;6.972;2023-04-10T08:23:11;13.20;99.90
15636;DHT22;7917;50.818;6.972;2023-04-10T08:25:38;13.40;99.90
15636;DHT22;7917;50.818;6.972;2023-04-10T08:28:05;13.50;99.90
15636;DHT22;7917;50.818;6.972;2023-04-10T08:30:35;13.70;99.90
15636;DHT22;7917;50.818;6.972;2023-04-10T08:33:02;13.90;99.90
15636;DHT22;7917;50.818;6.972;2023-04-10T08:35:29;14.30;99.90
15636;DHT22;7917;50.818;6.972;2023-04-10T08:37:56;14.60;99.90
15636;DHT22;7917;50.818;6.972;2023-04-10T08:40:23;14.50;99.90
15636;DHT22;7917;50.818;6.972;2023-04-10T08:42:51;14.30;99.90
15636;DHT22;7917;50.818;6.972;2023-04-10T08:45:17;14.20;99.90
15636;DHT22;7917;50.818;6.972;2023-04-10T08:47:44;14.20;99.90
15636;DHT22;7917;50.818;6.972;2023-04-10T08:50:15;14.30;99.90
15636;DHT22;7917;50.818;6.972;2023-04-10T08:52:44;14.50;99.90
15636;DHT22;7917;50.818;6.972;2023-04-10T08:55:13;14.60;99.90
15636;DHT22;7917;50.818;6.972;2023-04-10T08:57:40;14.60;99.90
15636;DHT22;7917;50.818;6.972;2023-04-10T09:00:08;14.60;99.90
15636;DHT22;7917;50.818;6.972;2023-04-10T09:02:41;14.50;99.90
15636;DHT22;7917;50.818;6.972;2023-04-10T09:05:10;14.60;99.90
15636;DHT22;7917;50.818;6.972;2023-04-10T09:07:38;14.50;99.90
15636;DHT22;7917;50.818;6.972;2023-04-10T09:10:06;14.50;99.90
15636;DHT22;7917;50.818;6.972;2023-04-10T09:12:43;14.60;99.90
15636;DHT22;7917;50.818;6.972;2023-04-10T09:15:11;14.50;99.90
15636;DHT22;7917;50.818;6.972;2023-04-10T09:17:54;14.50;99.90
15636;DHT22;7917;50.818;6.972;2023-04-10T09:20:23;14.60;99.90
15636;DHT22;7917;50.818;6.972;2023-04-10T09:22:50;14.50;99.90
15636;DHT22;7917;50.818;6.972;2023-04-10T09:25:31;14.70;99.90
15636;DHT22;7917;50.818;6.972;2023-04-10T09:28:04;14.80;99.90
15636;DHT22;7917;50.818;6.972;2023-04-10T09:30:35;14.80;99.90
15636;DHT22;7917;50.818;6.972;2023-04-10T09:33:10;14.90;99.90
15636;DHT22;7917;50.818;6.972;2023-04-10T09:35:46;15.20;99.90
15636;DHT22;7917;50.818;6.972;2023-04-10T09:38:14;15.30;99.90
15636;DHT22;7917;50.818;6.972;2023-04-10T09:40:42;15.30;99.90
15636;DHT22;7917;50.818;6.972;2023-04-10T09:43:26;15.50;99.90
15636;DHT22;7917;50.818;6.972;2023-04-10T09:45:54;15.40;99.90
15636;DHT22;7917;50.818;6.972;2023-04-10T09:48:23;15.50;99.90
15636;DHT22;7917;50.818;6.972;2023-04-10T09:51:27;15.50;99.90
15636;DHT22;7917;50.818;6.972;2023-04-10T09:54:13;15.70;99.90
15636;DHT22;7917;50.818;6.972;2023-04-10T09:56:44;15.90;99.90
15636;DHT22;7917;50.818;6.972;2023-04-10T09:59:13;15.80;99.90
15636;DHT22;7917;50.818;6.972;2023-04-10T10:01:41;15.80;99.90
15636;DHT22;7917;50.818;6.972;2023-04-10T10:04:09;16.10;99.90
15636;DHT22;7917;50.818;6.972;2023-04-10T10:06:37;16.00;99.90
15636;DHT22;7917;50.818;6.972;2023-04-10T10:09:05;15.90;99.90
15636;DHT22;7917;50.818;6.972;2023-04-10T10:11:34;16.10;99.90
15636;DHT22;7917;50.818;6.972;2023-04-10T10:14:02;16.00;99.90
15636;DHT22;7917;50.818;6.972;2023-04-10T10:16:35;15.90;99.90
15636;DHT22;7917;50.818;6.972;2023-04-10T10:19:08;16.10;99.90
15636;DHT22;7917;50.818;6.972;2023-04-10T10:21:38;16.30;99.90
15636;DHT22;7917;50.818;6.972;2023-04-10T10:24:07;16.40;99.90
15636;DHT22;7917;50.818;6.972;2023-04-10T10:26:50;16.60;99.90
15636;DHT22;7917;50.818;6.972;2023-04-10T10:29:20;16.80;99.90
15636;DHT22;7917;50.818;6.972;2023-04-10T10:31:48;17.30;99.90
15636;DHT22;7917;50.818;6.972;2023-04-10T10:34:16;17.40;99.90
15636;DHT22;7917;50.818;6.972;2023-04-10T10:36:43;17.30;99.90
15636;DHT22;7917;50.818;6.972;2023-04-10T10:39:23;17.20;99.90
15636;DHT22;7917;50.818;6.972;2023-04-10T10:41:59;17.30;99.90
15636;DHT22;7917;50.818;6.972;2023-04-10T10:44:35;17.30;99.90
15636;DHT22;7917;50.818;6.972;2023-04-10T10:50:52;18.00;99.90
15636;DHT22;7917;50.818;6.972;2023-04-10T10:53:32;18.20;99.90
15636;DHT22;7917;50.818;6.972;2023-04-10T10:56:36;18.10;99.90
15636;DHT22;7917;50.818;6.972;2023-04-10T10:59:03;18.20;99.90
15636;DHT22;7917;50.818;6.972;2023-04-10T11:01:30;18.40;99.90
15636;DHT22;7917;50.818;6.972;2023-04-10T11:03:57;18.50;99.90
15636;DHT22;7917;50.818;6.972;2023-04-10T11:06:48;18.40;99.90
15636;DHT22;7917;50.818;6.972;2023-04-10T11:09:43;18.10;99.90
15636;DHT22;7917;50.818;6.972;2023-04-10T11:12:11;17.90;99.90
15636;DHT22;7917;50.818;6.972;2023-04-10T11:14:39;17.80;99.90
15636;DHT22;7917;50.818;6.972;2023-04-10T11:17:06;17.80;99.90
15636;DHT22;7917;50.818;6.972;2023-04-10T11:19:57;17.80;99.90
15636;DHT22;7917;50.818;6.972;2023-04-10T11:25:46;18.20;99.80
15636;DHT22;7917;50.818;6.972;2023-04-10T11:28:35;18.30;98.60
15636;DHT22;7917;50.818;6.972;2023-04-10T11:34:13;18.40;98.90
15636;DHT22;7917;50.818;6.972;2023-04-10T11:36:42;18.70;97.20
15636;DHT22;7917;50.818;6.972;2023-04-10T11:39:10;18.70;95.60
15636;DHT22;7917;50.818;6.972;2023-04-10T11:41:40;18.70;96.30
15636;DHT22;7917;50.818;6.972;2023-04-10T11:44:09;18.60;95.80
15636;DHT22;7917;50.818;6.972;2023-04-10T11:46:37;18.40;96.40
15636;DHT22;7917;50.818;6.972;2023-04-10T11:49:08;18.10;97.10
15636;DHT22;7917;50.818;6.972;2023-04-10T11:51:36;18.00;97.40
15636;DHT22;7917;50.818;6.972;2023-04-10T11:54:05;17.90;97.80
15636;DHT22;7917;50.818;6.972;2023-04-10T11:56:32;18.00;97.20
15636;DHT22;7917;50.818;6.972;2023-04-10T11:59:01;18.20;95.80
15636;DHT22;7917;50.818;6.972;2023-04-10T12:01:32;18.30;95.70
15636;DHT22;7917;50.818;6.972;2023-04-10T12:03:59;18.30;94.60
15636;DHT22;7917;50.818;6.972;2023-04-10T12:06:27;18.40;94.40
15636;DHT22;7917;50.818;6.972;2023-04-10T12:08:54;18.50;93.50
15636;DHT22;7917;50.818;6.972;2023-04-10T12:11:22;18.60;93.20
15636;DHT22;7917;50.818;6.972;2023-04-10T12:13:51;18.60;93.10
15636;DHT22;7917;50.818;6.972;2023-04-10T12:16:19;18.70;93.10
15636;DHT22;7917;50.818;6.972;2023-04-10T12:18:47;18.80;91.30
15636;DHT22;7917;50.818;6.972;2023-04-10T12:21:46;19.20;89.30
15636;DHT22;7917;50.818;6.972;2023-04-10T12:24:42;19.50;88.60
15636;DHT22;7917;50.818;6.972;2023-04-10T12:27:15;19.40;87.10
15636;DHT22;7917;50.818;6.972;2023-04-10T12:29:43;19.60;99.60
15636;DHT22;7917;50.818;6.972;2023-04-10T12:32:11;19.50;86.40
15636;DHT22;7917;50.818;6.972;2023-04-10T12:34:38;19.60;83.10
15636;DHT22;7917;50.818;6.972;2023-04-10T12:37:05;19.70;83.60
15636;DHT22;7917;50.818;6.972;2023-04-10T12:39:32;19.70;81.60
15636;DHT22;7917;50.818;6.972;2023-04-10T12:42:14;19.80;78.10
15636;DHT22;7917;50.818;6.972;2023-04-10T12:44:52;19.70;82.60
15636;DHT22;7917;50.818;6.972;2023-04-10T12:47:21;19.50;83.10
15636;DHT22;7917;50.818;6.972;2023-04-10T12:50:05;19.50;82.00
15636;DHT22;7917;50.818;6.972;2023-04-10T12:52:35;19.60;81.50
15636;DHT22;7917;50.818;6.972;2023-04-10T12:55:11;19.90;79.40
15636;DHT22;7917;50.818;6.972;2023-04-10T12:57:38;20.20;76.50
15636;DHT22;7917;50.818;6.972;2023-04-10T13:00:07;20.30;72.90
15636;DHT22;7917;50.818;6.972;2023-04-10T13:02:35;20.40;72.50
15636;DHT22;7917;50.818;6.972;2023-04-10T13:05:02;20.70;70.00
15636;DHT22;7917;50.818;6.972;2023-04-10T13:07:29;20.90;67.70
15636;DHT22;7917;50.818;6.972;2023-04-10T13:09:57;20.80;64.70
15636;DHT22;7917;50.818;6.972;2023-04-10T13:12:24;20.70;64.10
15636;DHT22;7917;50.818;6.972;2023-04-10T13:14:52;20.30;64.30
15636;DHT22;7917;50.818;6.972;2023-04-10T13:17:19;20.10;64.00
15636;DHT22;7917;50.818;6.972;2023-04-10T13:19:47;20.20;67.00
15636;DHT22;7917;50.818;6.972;2023-04-10T13:22:14;19.80;65.10
15636;DHT22;7917;50.818;6.972;2023-04-10T13:24:42;19.90;64.60
15636;DHT22;7917;50.818;6.972;2023-04-10T13:27:09;19.80;65.70
15636;DHT22;7917;50.818;6.972;2023-04-10T13:29:39;19.60;64.30
15636;DHT22;7917;50.818;6.972;2023-04-10T13:32:06;19.70;64.00
15636;DHT22;7917;50.818;6.972;2023-04-10T13:34:34;19.50;66.10
15636;DHT22;7917;50.818;6.972;2023-04-10T13:37:02;19.60;65.70
15636;DHT22;7917;50.818;6.972;2023-04-10T13:39:30;19.80;66.80
15636;DHT22;7917;50.818;6.972;2023-04-10T13:41:57;19.50;64.50
15636;DHT22;7917;50.818;6.972;2023-04-10T13:44:25;19.60;66.00
15636;DHT22;7917;50.818;6.972;2023-04-10T13:46:52;19.60;63.60
15636;DHT22;7917;50.818;6.972;2023-04-10T13:49:19;19.30;66.20
15636;DHT22;7917;50.818;6.972;2023-04-10T13:51:53;19.00;66.60
15636;DHT22;7917;50.818;6.972;2023-04-10T13:54:20;19.00;67.10
15636;DHT22;7917;50.818;6.972;2023-04-10T13:56:47;19.00;68.00
15636;DHT22;7917;50.818;6.972;2023-04-10T13:59:15;19.40;64.90
15636;DHT22;7917;50.818;6.972;2023-04-10T14:01:48;19.70;64.50
15636;DHT22;7917;50.818;6.972;2023-04-10T14:04:17;19.80;62.60
15636;DHT22;7917;50.818;6.972;2023-04-10T14:06:44;19.90;59.10
15636;DHT22;7917;50.818;6.972;2023-04-10T14:09:45;19.70;60.40
15636;DHT22;7917;50.818;6.972;2023-04-10T14:12:13;19.60;62.80
15636;DHT22;7917;50.818;6.972;2023-04-10T14:14:41;19.50;64.10
15636;DHT22;7917;50.818;6.972;2023-04-10T14:17:08;19.60;62.70
15636;DHT22;7917;50.818;6.972;2023-04-10T14:19:36;19.30;63.70
15636;DHT22;7917;50.818;6.972;2023-04-10T14:22:03;19.30;66.10
15636;DHT22;7917;50.818;6.972;2023-04-10T14:24:30;19.20;64.90
15636;DHT22;7917;50.818;6.972;2023-04-10T14:26:58;18.90;68.30
15636;DHT22;7917;50.818;6.972;2023-04-10T14:29:26;18.80;68.20
15636;DHT22;7917;50.818;6.972;2023-04-10T14:31:54;18.80;69.60
15636;DHT22;7917;50.818;6.972;2023-04-10T14:34:21;18.80;69.40
15636;DHT22;7917;50.818;6.972;2023-04-10T14:36:48;18.80;68.40
15636;DHT22;7917;50.818;6.972;2023-04-10T14:39:15;18.70;67.60
15636;DHT22;7917;50.818;6.972;2023-04-10T14:41:42;18.60;69.30
15636;DHT22;7917;50.818;6.972;2023-04-10T14:44:09;18.70;68.50
15636;DHT22;7917;50.818;6.972;2023-04-10T14:46:36;18.70;67.70
15636;DHT22;7917;50.818;6.972;2023-04-10T14:49:03;19.10;63.90
15636;DHT22;7917;50.818;6.972;2023-04-10T14:51:30;19.60;63.70
15636;DHT22;7917;50.818;6.972;2023-04-10T14:53:58;19.80;59.50
15636;DHT22;7917;50.818;6.972;2023-04-10T14:56:25;19.70;59.80
15636;DHT22;7917;50.818;6.972;2023-04-10T14:58:52;19.50;59.70
15636;DHT22;7917;50.818;6.972;2023-04-10T15:01:20;19.30;62.40
15636;DHT22;7917;50.818;6.972;2023-04-10T15:03:47;19.20;62.70
15636;DHT22;7917;50.818;6.972;2023-04-10T15:06:14;19.30;62.90
15636;DHT22;7917;50.818;6.972;2023-04-10T15:08:41;19.50;61.80
15636;DHT22;7917;50.818;6.972;2023-04-10T15:11:07;19.30;62.20
15636;DHT22;7917;50.818;6.972;2023-04-10T15:13:35;19.20;64.40
15636;DHT22;7917;50.818;6.972;2023-04-10T15:16:04;19.00;66.20
15636;DHT22;7917;50.818;6.972;2023-04-10T15:18:33;18.90;67.80
15636;DHT22;7917;50.818;6.972;2023-04-10T15:21:00;18.70;70.10
15636;DHT22;7917;50.818;6.972;2023-04-10T15:23:27;18.60;71.80
15636;DHT22;7917;50.818;6.972;2023-04-10T15:25:55;18.50;71.90
15636;DHT22;7917;50.818;6.972;2023-04-10T15:28:22;18.30;74.40
15636;DHT22;7917;50.818;6.972;2023-04-10T15:30:49;18.20;75.70
15636;DHT22;7917;50.818;6.972;2023-04-10T15:33:16;18.10;79.50
15636;DHT22;7917;50.818;6.972;2023-04-10T15:35:47;17.90;80.30
15636;DHT22;7917;50.818;6.972;2023-04-10T15:38:14;17.80;81.40
15636;DHT22;7917;50.818;6.972;2023-04-10T15:40:41;17.90;81.60
15636;DHT22;7917;50.818;6.972;2023-04-10T15:43:08;17.80;82.10
15636;DHT22;7917;50.818;6.972;2023-04-10T15:45:36;17.60;85.10
15636;DHT22;7917;50.818;6.972;2023-04-10T15:48:03;17.50;86.00
15636;DHT22;7917;50.818;6.972;2023-04-10T15:50:30;17.30;87.70
15636;DHT22;7917;50.818;6.972;2023-04-10T15:52:57;17.10;90.80
15636;DHT22;7917;50.818;6.972;2023-04-10T15:55:25;17.00;91.20
15636;DHT22;7917;50.818;6.972;2023-04-10T15:57:51;17.00;92.30
15636;DHT22;7917;50.818;6.972;2023-04-10T16:00:37;16.90;92.40
15636;DHT22;7917;50.818;6.972;2023-04-10T16:03:04;16.80;92.80
15636;DHT22;7917;50.818;6.972;2023-04-10T16:05:31;16.70;93.50
15636;DHT22;7917;50.818;6.972;2023-04-10T16:08:01;16.50;94.50
15636;DHT22;7917;50.818;6.972;2023-04-10T16:10:28;16.50;94.80
15636;DHT22;7917;50.818;6.972;2023-04-10T16:12:55;16.50;95.00
15636;DHT22;7917;50.818;6.972;2023-04-10T16:15:27;16.30;96.30
15636;DHT22;7917;50.818;6.972;2023-04-10T16:17:54;16.30;97.10
15636;DHT22;7917;50.818;6.972;2023-04-10T16:20:49;16.30;97.30
15636;DHT22;7917;50.818;6.972;2023-04-10T16:23:17;16.10;98.30
15636;DHT22;7917;50.818;6.972;2023-04-10T16:25:44;16.10;98.70
15636;DHT22;7917;50.818;6.972;2023-04-10T16:28:11;16.00;99.80
15636;DHT22;7917;50.818;6.972;2023-04-10T16:30:41;15.90;99.90